Time;durP1;ratioP1;P1;durP2;ratioP2;P2;SDS_P1;SDS_P2;PMS_P1;PMS_P2;Temp;Humidity;BMP_temperature;BMP_pressure;BME280_temperature;BME280_humidity;BME280_pressure;Samples;Min_cycle;Max_cycle;Signal;HPM_P1;HPM_P2
2023/01/12 00:02:24;;;;;;;57.70;29.60;;;;;;;1.48;93.74;95941.89;110572;1276;22813;-69
2023/01/12 00:04:52;;;;;;;87.10;38.50;;;;;;;1.52;93.52;95939.70;110270;1276;22109;-69
2023/01/12 00:07:20;;;;;;;93.50;39.70;;;;;;;1.55;93.48;95941.84;110285;1276;22213;-69
2023/01/12 00:09:48;;;;;;;81.80;35.70;;;;;;;1.53;93.16;95939.55;110535;1276;22142;-69
2023/01/12 00:12:16;;;;;;;79.40;34.00;;;;;;;1.51;92.95;95940.04;110504;1276;22358;-69
2023/01/12 00:14:45;;;;;;;93.80;36.20;;;;;;;1.46;92.85;95936.46;110219;1276;22988;-69
2023/01/12 00:17:15;;;;;;;91.90;36.80;;;;;;;1.43;92.62;95938.80;110534;1276;22192;-70
2023/01/12 00:19:44;;;;;;;93.00;37.60;;;;;;;1.46;92.85;95944.43;110527;1276;22106;-70
2023/01/12 00:22:13;;;;;;;66.10;28.10;;;;;;;1.46;92.96;95943.73;110475;1276;22128;-70
2023/01/12 00:24:44;;;;;;;70.40;30.20;;;;;;;1.49;93.06;95937.92;110529;1276;22196;-69
2023/01/12 00:27:18;;;;;;;49.10;23.50;;;;;;;1.54;93.47;95938.19;110273;1276;22263;-69
2023/01/12 00:29:46;;;;;;;51.80;25.30;;;;;;;1.58;93.55;95940.01;110543;1276;22848;-69
2023/01/12 00:32:17;;;;;;;62.50;30.60;;;;;;;1.62;93.72;95931.95;110525;1276;22934;-70
2023/01/12 00:34:46;;;;;;;65.00;28.50;;;;;;;1.64;93.48;95934.94;110499;1276;22939;-70
2023/01/12 00:37:14;;;;;;;70.80;32.40;;;;;;;1.62;93.16;95940.96;110272;1276;23038;-69
2023/01/12 00:39:43;;;;;;;65.60;31.50;;;;;;;1.61;93.27;95950.31;110524;1276;22133;-69
2023/01/12 00:45:21;;;;;;;65.80;34.30;;;;;;;1.67;93.30;95962.23;110297;1276;22977;-70
2023/01/12 00:47:52;;;;;;;47.60;22.70;;;;;;;1.75;93.58;95969.67;110468;1276;22147;-70
2023/01/12 00:50:20;;;;;;;48.10;23.30;;;;;;;1.82;93.67;95968.08;110513;1276;22320;-69
2023/01/12 00:52:48;;;;;;;37.00;18.00;;;;;;;1.88;93.63;95970.12;110516;1276;22323;-69
2023/01/12 00:55:16;;;;;;;33.20;17.50;;;;;;;1.95;93.88;95977.40;110529;1276;22124;-69
2023/01/12 00:57:45;;;;;;;33.30;17.70;;;;;;;1.99;93.57;95981.46;110508;1276;22130;-69
2023/01/12 01:00:14;;;;;;;36.60;17.50;;;;;;;1.98;93.32;95986.13;110269;1276;22136;-69
2023/01/12 01:02:42;;;;;;;39.40;19.80;;;;;;;1.92;93.08;95992.08;110498;1276;22300;-68
2023/01/12 01:05:10;;;;;;;46.30;24.20;;;;;;;1.85;92.65;95995.40;110486;1276;22195;-69
2023/01/12 01:07:38;;;;;;;46.60;22.50;;;;;;;1.82;92.97;95998.11;110283;1276;22874;-69
2023/01/12 01:10:07;;;;;;;46.80;23.20;;;;;;;1.84;93.40;95994.67;110509;1265;22176;-69
2023/01/12 01:12:35;;;;;;;48.90;23.60;;;;;;;1.88;93.58;95993.90;110515;1276;22972;-69
2023/01/12 01:15:04;;;;;;;44.80;23.30;;;;;;;1.92;93.60;95987.38;110531;1276;22130;-69
2023/01/12 01:17:32;;;;;;;51.60;25.00;;;;;;;1.93;93.36;95984.45;110534;1265;22186;-69
2023/01/12 01:20:00;;;;;;;57.90;27.20;;;;;;;1.95;93.48;95983.09;110531;1276;22134;-69
2023/01/12 01:22:29;;;;;;;50.30;25.30;;;;;;;1.98;93.42;95978.48;110523;1276;22125;-69
2023/01/12 01:24:57;;;;;;;51.60;24.80;;;;;;;1.98;93.28;95975.53;110239;1276;22652;-69
2023/01/12 01:27:25;;;;;;;42.60;21.40;;;;;;;1.98;93.04;95975.02;110548;1276;22354;-69
2023/01/12 01:29:53;;;;;;;38.40;19.20;;;;;;;1.99;93.19;95971.73;110500;1276;23006;-69
2023/01/12 01:32:21;;;;;;;45.00;22.30;;;;;;;1.98;93.14;95975.89;110496;1276;22115;-68
2023/01/12 01:34:50;;;;;;;43.30;20.80;;;;;;;1.92;93.50;95978.70;110494;1276;22157;-68
2023/01/12 01:37:20;;;;;;;49.30;24.60;;;;;;;1.92;93.77;95975.77;110473;1276;23016;-68
2023/01/12 01:39:48;;;;;;;47.00;22.40;;;;;;;1.97;93.67;95975.00;110315;1274;22108;-69
2023/01/12 01:42:26;;;;;;;30.20;17.50;;;;;;;2.02;93.53;95972.15;110279;1276;22234;-68
2023/01/12 01:44:58;;;;;;;32.80;16.50;;;;;;;2.08;93.74;95971.58;110505;1276;22125;-68
2023/01/12 01:47:35;;;;;;;42.00;20.70;;;;;;;2.13;93.87;95968.92;110282;1276;22120;-68
2023/01/12 01:50:11;;;;;;;60.90;29.70;;;;;;;2.16;93.81;95960.81;110283;1276;22212;-68
2023/01/12 01:52:43;;;;;;;57.70;28.10;;;;;;;2.19;93.85;95962.06;110462;1276;22191;-68
2023/01/12 01:55:32;;;;;;;56.70;27.00;;;;;;;2.24;93.83;95958.02;110501;1276;22140;-68
2023/01/12 01:58:06;;;;;;;31.60;16.40;;;;;;;2.32;94.20;95957.12;110303;1276;22300;-69
2023/01/12 02:00:39;;;;;;;19.40;9.50;;;;;;;2.38;94.19;95957.58;110285;1276;22113;-68
2023/01/12 02:03:08;;;;;;;27.20;12.10;;;;;;;2.46;94.46;95958.95;110507;1276;22131;-68
2023/01/12 02:05:41;;;;;;;27.40;13.70;;;;;;;2.55;94.69;95962.41;110510;1276;22100;-68
2023/01/12 02:08:25;;;;;;;17.30;7.80;;;;;;;2.65;94.75;95956.86;110474;1276;22839;-68
2023/01/12 02:10:56;;;;;;;19.70;10.20;;;;;;;2.72;94.46;95953.67;110513;1276;22126;-68
2023/01/12 02:16:29;;;;;;;21.20;11.60;;;;;;;2.78;94.45;95950.48;110491;1276;22151;-68
2023/01/12 02:19:20;;;;;;;28.90;14.70;;;;;;;2.83;94.51;95952.65;110510;1276;22127;-69
2023/01/12 02:21:48;;;;;;;25.10;13.00;;;;;;;2.85;94.30;95950.26;110497;1276;22207;-68
2023/01/12 02:24:51;;;;;;;41.90;20.30;;;;;;;2.84;93.85;95942.57;110529;1276;22109;-68
2023/01/12 02:27:24;;;;;;;41.20;19.00;;;;;;;2.82;93.68;95945.16;110528;1276;22284;-68
2023/01/12 02:30:12;;;;;;;34.20;15.80;;;;;;;2.80;93.45;95948.08;110521;1276;22160;-69
2023/01/12 02:32:58;;;;;;;22.90;12.00;;;;;;;2.75;93.78;95955.63;110519;1276;22140;-69
2023/01/12 02:35:38;;;;;;;24.70;9.30;;;;;;;2.73;93.98;95960.30;110285;1276;22153;-68
2023/01/12 02:38:35;;;;;;;13.30;8.70;;;;;;;2.78;94.06;95961.59;110511;1276;22139;-69
2023/01/12 02:41:14;;;;;;;12.00;6.90;;;;;;;2.83;94.24;95957.69;110288;1276;22177;-69
2023/01/12 02:43:43;;;;;;;8.50;6.10;;;;;;;2.90;94.67;95960.05;110543;1276;22160;-69
2023/01/12 02:46:19;;;;;;;9.60;6.40;;;;;;;2.96;95.07;95963.65;110303;1276;22340;-68
2023/01/12 02:48:54;;;;;;;9.30;5.60;;;;;;;3.02;94.82;95966.70;110502;1276;22315;-69
2023/01/12 02:51:48;;;;;;;8.40;5.90;;;;;;;3.04;94.52;95975.23;110489;1276;22128;-69
2023/01/12 02:54:19;;;;;;;11.30;6.70;;;;;;;3.08;94.80;95978.96;110228;1276;22427;-69
2023/01/12 02:56:53;;;;;;;9.20;5.80;;;;;;;3.13;94.72;95976.62;110230;1276;23059;-69
2023/01/12 02:59:24;;;;;;;9.10;6.40;;;;;;;3.16;94.58;95978.05;110519;1276;22170;-69
2023/01/12 03:01:58;;;;;;;8.80;6.20;;;;;;;3.17;94.35;95979.27;110497;1276;22127;-69
2023/01/12 03:04:28;;;;;;;11.30;7.20;;;;;;;3.20;94.38;95980.38;110307;1276;22247;-69
2023/01/12 03:06:56;;;;;;;9.70;6.90;;;;;;;3.22;94.33;95981.61;110510;1276;23190;-69
2023/01/12 03:09:35;;;;;;;8.90;6.60;;;;;;;3.24;94.27;95981.66;110490;1276;22140;-68
2023/01/12 03:12:09;;;;;;;10.60;7.00;;;;;;;3.27;94.26;95979.97;110493;1276;22867;-68
2023/01/12 03:14:38;;;;;;;;;;;;;;;3.33;94.47;95978.66;110503;1265;22396;-69
2023/01/12 03:17:14;;;;;;;10.20;6.70;;;;;;;3.35;94.44;95976.77;110494;1276;22263;-69
2023/01/12 03:19:44;;;;;;;10.10;6.60;;;;;;;3.37;94.43;95974.02;110497;1276;22212;-69
2023/01/12 03:22:15;;;;;;;8.70;6.70;;;;;;;3.42;94.55;95973.95;110485;1276;22198;-68
2023/01/12 03:24:47;;;;;;;57.30;36.50;;;;;;;3.44;94.37;95977.10;110485;1276;22144;-68
2023/01/12 03:27:28;;;;;;;23.00;14.60;;;;;;;3.42;93.80;95973.77;110284;1276;22134;-68
2023/01/12 03:30:01;;;;;;;15.60;10.40;;;;;;;3.40;93.70;95968.34;110485;1276;23008;-69
2023/01/12 03:32:29;;;;;;;19.70;12.30;;;;;;;3.37;93.65;95968.64;110310;1276;22863;-69
2023/01/12 03:34:58;;;;;;;19.80;12.60;;;;;;;3.41;94.00;95969.92;110486;1276;22129;-68
2023/01/12 03:37:46;;;;;;;15.80;8.80;;;;;;;3.47;94.18;95972.96;110444;1276;22301;-69
2023/01/12 03:40:22;;;;;;;26.60;14.80;;;;;;;3.48;93.79;95976.97;110321;1276;22255;-68
2023/01/12 03:43:05;;;;;;;24.10;14.20;;;;;;;3.45;93.80;95978.50;110460;1276;22227;-68
2023/01/12 03:46:10;;;;;;;19.60;10.10;;;;;;;3.41;93.31;95980.52;110495;1276;22149;-68
2023/01/12 03:48:56;;;;;;;56.00;23.50;;;;;;;3.42;93.83;95978.80;110321;1276;22100;-68
2023/01/12 03:51:28;;;;;;;40.20;20.70;;;;;;;3.44;93.72;95972.22;110476;1276;22134;-68
2023/01/12 03:53:57;;;;;;;35.00;17.70;;;;;;;3.43;93.46;95967.52;110505;1276;22291;-68
2023/01/12 03:56:29;;;;;;;29.80;15.70;;;;;;;3.41;93.41;95968.52;110443;1276;22312;-69
2023/01/12 03:58:57;;;;;;;25.20;14.10;;;;;;;3.42;93.43;95967.32;110502;1276;22281;-68
2023/01/12 04:01:25;;;;;;;14.70;9.80;;;;;;;3.41;93.32;95968.70;110306;1276;22131;-68
2023/01/12 04:03:54;;;;;;;16.20;10.30;;;;;;;3.38;93.04;95963.27;110477;1276;22155;-68
2023/01/12 04:06:22;;;;;;;19.50;11.70;;;;;;;3.38;93.47;95960.14;110474;1276;22323;-68
2023/01/12 04:08:50;;;;;;;19.00;11.40;;;;;;;3.38;93.26;95958.56;110495;1276;22135;-68
2023/01/12 04:14:05;;;;;;;21.70;14.10;;;;;;;3.41;93.57;95952.02;110474;1276;22163;-68
2023/01/12 04:16:33;;;;;;;19.40;12.50;;;;;;;3.40;93.35;95945.21;110465;1276;22155;-68
2023/01/12 04:19:01;;;;;;;21.10;13.30;;;;;;;3.35;92.82;95948.09;110476;1276;22227;-68
2023/01/12 04:24:15;;;;;;;20.50;13.80;;;;;;;3.38;92.96;95959.78;110480;1276;22171;-68
2023/01/12 04:26:45;;;;;;;24.10;15.50;;;;;;;3.37;92.98;95964.98;110489;1276;22196;-68
2023/01/12 04:29:13;;;;;;;20.50;14.30;;;;;;;3.38;93.17;95962.40;110471;1276;22913;-68
2023/01/12 04:31:41;;;;;;;19.90;13.20;;;;;;;3.35;92.78;95960.95;110303;1276;22200;-68
2023/01/12 04:34:09;;;;;;;21.40;13.70;;;;;;;3.32;92.77;95953.60;110487;1276;22162;-68
2023/01/12 04:36:37;;;;;;;22.50;13.60;;;;;;;3.34;93.02;95948.60;110474;1276;22335;-68
2023/01/12 04:39:08;;;;;;;19.80;12.90;;;;;;;3.38;93.47;95940.84;110474;1276;22709;-69
2023/01/12 04:41:36;;;;;;;19.70;12.80;;;;;;;3.43;93.50;95943.69;110483;1276;22892;-68
2023/01/12 04:44:05;;;;;;;16.00;12.00;;;;;;;3.45;93.44;95934.16;110487;1276;22105;-68
2023/01/12 04:46:33;;;;;;;22.10;13.20;;;;;;;3.45;93.12;95929.11;110500;1276;22315;-69
2023/01/12 04:49:01;;;;;;;19.40;13.00;;;;;;;3.37;92.68;95930.92;110465;1263;22762;-68
2023/01/12 04:51:29;;;;;;;22.00;14.30;;;;;;;3.35;92.79;95927.21;110446;1276;22828;-68
2023/01/12 04:53:57;;;;;;;22.80;14.80;;;;;;;3.36;93.07;95919.42;110474;1276;22306;-68
2023/01/12 04:56:25;;;;;;;30.80;18.40;;;;;;;3.38;93.33;95916.16;110493;1276;22364;-68
2023/01/12 04:58:58;;;;;;;21.60;13.50;;;;;;;3.38;93.13;95913.71;110479;1276;22172;-68
2023/01/12 05:01:28;;;;;;;18.40;13.70;;;;;;;3.35;92.89;95915.23;110475;1276;22126;-69
2023/01/12 05:04:01;;;;;;;21.00;14.30;;;;;;;3.33;93.36;95919.89;110349;1276;22860;-69
2023/01/12 05:06:29;;;;;;;41.10;21.20;;;;;;;3.28;93.14;95927.83;110479;1276;22997;-68
2023/01/12 05:11:47;;;;;;;52.10;29.20;;;;;;;3.23;93.32;95927.23;110455;1276;22883;-69
2023/01/12 05:14:15;;;;;;;43.20;26.80;;;;;;;3.28;93.79;95933.56;110442;1276;23072;-69
2023/01/12 05:16:43;;;;;;;47.20;29.40;;;;;;;3.34;93.95;95933.13;110456;1276;22218;-68
2023/01/12 05:19:11;;;;;;;46.40;29.10;;;;;;;3.40;94.07;95927.99;110480;1276;22165;-68
2023/01/12 05:21:39;;;;;;;47.70;27.10;;;;;;;3.47;94.07;95925.13;110318;1276;22963;-69
2023/01/12 05:24:08;;;;;;;48.00;27.60;;;;;;;3.45;93.50;95926.15;110443;1276;22961;-68
2023/01/12 05:26:36;;;;;;;40.00;25.10;;;;;;;3.45;93.64;95931.21;110460;1276;22172;-69
2023/01/12 05:29:04;;;;;;;40.50;23.90;;;;;;;3.50;93.93;95932.99;110458;1276;22153;-69
2023/01/12 05:31:33;;;;;;;40.10;22.90;;;;;;;3.54;93.90;95935.66;110452;1276;22156;-69
2023/01/12 05:34:02;;;;;;;33.50;21.40;;;;;;;3.55;93.86;95944.90;110364;1276;23038;-69
2023/01/12 05:36:31;;;;;;;37.10;21.00;;;;;;;3.55;93.46;95938.46;110430;1276;22125;-69
2023/01/12 05:38:59;;;;;;;33.60;21.30;;;;;;;3.51;93.14;95946.93;110439;1276;22135;-69
2023/01/12 05:41:27;;;;;;;28.90;16.80;;;;;;;3.50;93.18;95938.55;110456;1276;23012;-68
2023/01/12 05:43:55;;;;;;;15.50;10.30;;;;;;;3.45;92.95;95940.25;110461;1276;22189;-68
2023/01/12 05:46:29;;;;;;;15.60;10.40;;;;;;;3.41;92.96;95942.09;110434;1276;22200;-69
2023/01/12 05:48:57;;;;;;;15.70;10.60;;;;;;;3.34;92.98;95937.83;110348;1276;22145;-69
2023/01/12 05:51:29;;;;;;;16.60;10.80;;;;;;;3.33;93.28;95935.38;110462;1276;22917;-69
2023/01/12 05:53:57;;;;;;;15.10;10.60;;;;;;;3.31;93.34;95939.16;110347;1276;22182;-69
2023/01/12 05:56:27;;;;;;;16.80;11.40;;;;;;;3.28;93.26;95939.64;110427;1276;22156;-68
2023/01/12 05:58:57;;;;;;;14.70;9.10;;;;;;;3.23;93.35;95946.01;110339;1276;22410;-68
2023/01/12 06:01:27;;;;;;;12.60;8.60;;;;;;;3.19;93.57;95954.09;110467;1276;22128;-69
2023/01/12 06:03:58;;;;;;;15.80;8.80;;;;;;;3.19;93.97;95949.59;110347;1276;22244;-76
2023/01/12 06:06:29;;;;;;;17.20;11.30;;;;;;;3.20;93.97;95948.57;110365;1276;22216;-80
2023/01/12 06:08:59;;;;;;;15.90;10.50;;;;;;;3.22;93.86;95935.90;110426;1276;22261;-72
2023/01/12 06:14:15;;;;;;;15.30;9.90;;;;;;;3.24;93.80;95944.63;110443;1276;22140;-79
2023/01/12 06:16:43;;;;;;;30.30;17.70;;;;;;;3.25;93.68;95954.90;110194;1276;22393;-77
2023/01/12 06:19:11;;;;;;;71.70;41.90;;;;;;;3.24;93.78;95967.91;110375;1276;23074;-73
2023/01/12 06:21:40;;;;;;;50.00;28.30;;;;;;;3.24;93.96;95973.13;110335;1276;22881;-73
2023/01/12 06:24:08;;;;;;;48.50;27.80;;;;;;;3.15;94.18;95973.51;110443;1276;22935;-70
2023/01/12 06:26:36;;;;;;;54.60;33.30;;;;;;;3.14;93.96;95973.66;110396;1276;22127;-81
2023/01/12 06:29:05;;;;;;;52.50;33.30;;;;;;;3.13;93.70;95972.27;110329;1276;22186;-76
2023/01/12 06:31:35;;;;;;;43.90;26.90;;;;;;;3.15;93.75;95974.91;110301;1276;22209;-72
2023/01/12 06:34:03;;;;;;;24.10;15.90;;;;;;;3.19;93.95;95971.65;110204;1276;22140;-74
2023/01/12 06:36:31;;;;;;;22.20;13.70;;;;;;;3.25;94.25;95975.77;110419;1276;22259;-79
2023/01/12 06:38:59;;;;;;;19.00;13.10;;;;;;;3.31;94.24;95973.23;110453;1276;22133;-80
2023/01/12 06:44:14;;;;;;;52.80;29.90;;;;;;;3.31;93.99;95981.42;110419;1276;22122;-79
2023/01/12 06:46:42;;;;;;;92.40;48.70;;;;;;;3.34;94.28;95985.46;110438;1276;22263;-79
2023/01/12 06:49:10;;;;;;;109.80;54.80;;;;;;;3.37;94.47;95990.73;110420;1270;22180;-73
2023/01/12 06:51:38;;;;;;;104.50;56.20;;;;;;;3.39;94.23;95988.33;110400;1276;22162;-80
2023/01/12 06:54:07;;;;;;;102.60;54.80;;;;;;;3.42;94.13;95992.19;110418;1276;22145;-79
2023/01/12 06:56:35;;;;;;;104.90;53.30;;;;;;;3.42;94.06;95991.30;110433;1276;22231;-80
2023/01/12 06:59:03;;;;;;;100.60;52.30;;;;;;;3.46;94.43;95993.81;110411;1276;22301;-79
2023/01/12 07:01:31;;;;;;;100.40;53.20;;;;;;;3.50;94.12;95992.48;110412;1271;22238;-72
2023/01/12 07:03:59;;;;;;;93.00;48.90;;;;;;;3.48;93.64;95999.23;110464;1276;22290;-78
2023/01/12 07:06:27;;;;;;;97.10;50.60;;;;;;;3.41;93.38;96001.23;110410;1276;22278;-78
2023/01/12 07:08:56;;;;;;;94.50;51.40;;;;;;;3.33;93.46;96000.58;110401;1276;22389;-78
2023/01/12 07:11:24;;;;;;;94.30;50.60;;;;;;;3.36;93.99;95998.52;110382;1258;22155;-70
2023/01/12 07:13:52;;;;;;;97.20;54.50;;;;;;;3.40;94.19;95996.67;110505;1275;22214;-76
2023/01/12 07:16:20;;;;;;;52.60;30.30;;;;;;;3.44;94.17;95999.88;110493;1275;22785;-75
2023/01/12 07:18:48;;;;;;;23.40;13.80;;;;;;;3.49;94.16;95996.81;110500;1275;22138;-72
2023/01/12 07:21:18;;;;;;;22.50;14.40;;;;;;;3.49;93.99;95991.95;110494;1275;22406;-71
2023/01/12 07:23:46;;;;;;;22.40;14.30;;;;;;;3.50;94.05;95989.52;110506;1275;22291;-74
2023/01/12 07:26:14;;;;;;;22.30;14.10;;;;;;;3.52;94.16;95985.55;110501;1275;23124;-71
2023/01/12 07:28:42;;;;;;;22.00;14.30;;;;;;;3.51;94.13;95981.37;110507;1275;22215;-76
2023/01/12 07:31:11;;;;;;;23.00;15.00;;;;;;;3.51;94.12;95985.70;110516;1275;22392;-78
2023/01/12 07:33:39;;;;;;;28.60;16.40;;;;;;;3.49;94.06;95984.64;110474;1275;22348;-75
2023/01/12 07:36:07;;;;;;;24.90;15.20;;;;;;;3.50;94.15;95989.52;110517;1275;23052;-69
2023/01/12 07:38:37;;;;;;;20.40;13.30;;;;;;;3.51;94.17;95993.55;110469;1275;22889;-78
2023/01/12 07:42:21;;;;;;;19.50;12.50;;;;;;;3.52;94.12;95990.60;110407;1275;22200;-69
2023/01/12 07:43:57;;;;;;;20.80;13.40;;;;;;;3.53;93.96;95989.03;110482;1275;22199;-77
2023/01/12 07:46:25;;;;;;;17.50;11.50;;;;;;;3.54;94.15;95993.42;110541;1275;22905;-74
2023/01/12 07:48:53;;;;;;;21.00;14.90;;;;;;;3.55;94.35;95994.46;110475;1259;22228;-77
2023/01/12 07:51:21;;;;;;;82.00;54.70;;;;;;;3.56;94.21;95998.49;110524;1263;22193;-71
2023/01/12 07:53:50;;;;;;;33.40;23.90;;;;;;;3.56;94.06;95993.80;110518;1275;22151;-70
2023/01/12 07:56:18;;;;;;;28.50;16.60;;;;;;;3.57;94.31;95996.05;110453;1275;22136;-73
2023/01/12 07:58:47;;;;;;;18.40;13.00;;;;;;;3.61;94.32;95995.09;110515;1275;22418;-71
2023/01/12 08:01:15;;;;;;;21.20;15.70;;;;;;;3.66;94.56;95999.16;110552;1275;23092;-71
2023/01/12 08:03:44;;;;;;;15.10;10.80;;;;;;;3.71;94.53;96002.89;110492;1275;23038;-70
2023/01/12 08:06:12;;;;;;;20.20;14.10;;;;;;;3.76;94.40;96009.38;110505;1275;22354;-74
2023/01/12 08:08:40;;;;;;;16.30;11.60;;;;;;;3.81;94.35;96014.50;110496;1275;22185;-74
2023/01/12 08:11:10;;;;;;;19.00;12.30;;;;;;;3.84;94.23;96009.67;110476;1275;23282;-72
2023/01/12 08:13:39;;;;;;;15.90;11.10;;;;;;;3.91;94.44;96002.98;110494;1275;22981;-80
2023/01/12 08:16:15;;;;;;;13.20;9.30;;;;;;;3.96;94.26;95995.58;110454;1275;22291;-71
2023/01/12 08:18:51;;;;;;;14.10;9.10;;;;;;;4.01;94.12;95998.95;110548;1275;22174;-70
2023/01/12 08:21:25;;;;;;;15.90;9.70;;;;;;;4.06;94.16;96001.45;110495;1275;22459;-71
2023/01/12 08:23:55;;;;;;;;;;;;;;;4.11;93.92;96000.65;110443;1275;22262;-72
2023/01/12 08:26:36;;;;;;;14.30;8.50;;;;;;;4.12;93.63;96006.40;110508;1275;22281;-69
2023/01/12 08:29:08;;;;;;;18.40;11.30;;;;;;;4.19;93.73;96007.52;110439;1275;22300;-70
2023/01/12 08:31:40;;;;;;;17.70;11.50;;;;;;;4.27;93.97;96011.83;110458;1275;22843;-72
2023/01/12 08:34:09;;;;;;;18.10;12.10;;;;;;;4.32;93.69;96014.14;110465;1275;22866;-74
2023/01/12 08:36:40;;;;;;;18.30;12.30;;;;;;;4.41;93.37;96019.64;110529;1275;22144;-70
2023/01/12 08:39:11;;;;;;;20.20;13.50;;;;;;;4.45;93.11;96025.45;110511;1275;22758;-69
2023/01/12 08:41:41;;;;;;;18.40;12.10;;;;;;;4.52;93.18;96024.30;110506;1275;22263;-71
2023/01/12 08:44:12;;;;;;;17.80;12.10;;;;;;;4.56;92.67;96014.59;110528;1275;22135;-67
2023/01/12 08:46:51;;;;;;;18.00;11.70;;;;;;;4.60;92.46;96007.50;110518;1275;22123;-68
2023/01/12 08:49:25;;;;;;;16.90;11.60;;;;;;;4.66;92.37;96007.23;110479;1275;22201;-68
2023/01/12 08:51:53;;;;;;;18.50;12.70;;;;;;;4.72;92.41;96002.23;110513;1275;22169;-70
2023/01/12 08:54:22;;;;;;;16.70;12.20;;;;;;;4.78;92.49;96000.38;110463;1275;22306;-69
2023/01/12 08:56:52;;;;;;;15.80;9.80;;;;;;;4.80;92.30;96000.73;110418;1275;22187;-68
2023/01/12 08:59:21;;;;;;;14.80;9.20;;;;;;;4.80;91.59;96007.19;110472;1275;22938;-73
2023/01/12 09:01:49;;;;;;;16.10;10.80;;;;;;;4.76;91.25;96013.77;110471;1275;22869;-67
2023/01/12 09:04:17;;;;;;;15.20;10.60;;;;;;;4.71;91.18;96022.08;110514;1275;22471;-72
2023/01/12 09:06:47;;;;;;;14.40;10.50;;;;;;;4.65;91.31;96027.08;110479;1275;22139;-81
2023/01/12 09:09:18;;;;;;;16.40;10.90;;;;;;;4.61;91.35;96032.08;110475;1275;22378;-66
2023/01/12 09:11:47;;;;;;;14.20;10.10;;;;;;;4.53;91.25;96034.78;110509;1275;22221;-66
2023/01/12 09:14:16;;;;;;;16.40;11.20;;;;;;;4.52;91.43;96038.42;110495;1275;22172;-68
2023/01/12 09:16:44;;;;;;;13.50;9.60;;;;;;;4.48;91.47;96038.89;110508;1275;22224;-65
2023/01/12 09:19:14;;;;;;;14.60;10.00;;;;;;;4.43;91.66;96046.32;110481;1275;22672;-67
2023/01/12 09:21:43;;;;;;;14.00;9.70;;;;;;;4.41;91.78;96046.45;110390;1275;22490;-70
2023/01/12 09:24:13;;;;;;;15.90;10.00;;;;;;;4.44;91.82;96044.41;110492;1275;23132;-67
2023/01/12 09:26:44;;;;;;;14.90;10.20;;;;;;;4.47;91.89;96040.96;110522;1275;22177;-74
2023/01/12 09:29:13;;;;;;;16.40;10.80;;;;;;;4.49;91.82;96044.31;110419;1275;22211;-70
2023/01/12 09:31:43;;;;;;;16.50;11.20;;;;;;;4.51;91.82;96049.73;110505;1275;22949;-71
2023/01/12 09:34:11;;;;;;;16.60;10.90;;;;;;;4.51;91.63;96060.17;110514;1275;22291;-70
2023/01/12 09:36:40;;;;;;;17.10;11.80;;;;;;;4.50;91.65;96058.26;110492;1275;23099;-68
2023/01/12 09:39:14;;;;;;;18.20;11.80;;;;;;;4.53;91.83;96058.29;110529;1275;22253;-70
2023/01/12 09:47:55;;;;;;;20.30;13.40;;;;;;;4.58;91.76;96053.13;110355;1276;22199;-71
2023/01/12 09:50:32;;;;;;;21.00;12.70;;;;;;;4.60;91.70;96045.83;110331;1276;22238;-67
2023/01/12 09:53:03;;;;;;;18.50;12.40;;;;;;;4.60;91.63;96048.45;110190;1277;22210;-66
2023/01/12 09:55:56;;;;;;;20.40;13.90;;;;;;;4.59;91.61;96043.39;110345;1276;22671;-68
2023/01/12 09:58:52;;;;;;;21.00;13.50;;;;;;;4.57;91.63;96037.77;110379;1276;22379;-74
2023/01/12 10:01:21;;;;;;;20.40;12.90;;;;;;;4.57;91.78;96033.08;110403;1276;22279;-68
2023/01/12 10:04:00;;;;;;;22.50;13.90;;;;;;;4.60;91.83;96030.48;110335;1276;22228;-71
2023/01/12 10:06:28;;;;;;;19.80;12.40;;;;;;;4.65;91.94;96034.21;110416;1276;22176;-70
2023/01/12 10:09:03;;;;;;;21.40;13.20;;;;;;;4.65;91.83;96033.88;110411;1276;22162;-70
2023/01/12 10:12:02;;;;;;;22.30;13.30;;;;;;;4.65;91.71;96039.79;110409;1276;22999;-70
2023/01/12 10:14:56;;;;;;;24.70;14.40;;;;;;;4.68;91.96;96030.77;110323;1275;22111;-70
2023/01/12 10:17:57;;;;;;;22.60;13.20;;;;;;;4.77;92.08;96024.08;110124;1277;22907;-70
2023/01/12 10:20:33;;;;;;;21.40;12.90;;;;;;;4.87;91.93;96015.98;110365;1277;22492;-70
2023/01/12 10:23:07;;;;;;;23.30;13.00;;;;;;;4.89;91.45;96013.91;110359;1277;22241;-70
2023/01/12 10:25:47;;;;;;;22.90;13.20;;;;;;;4.89;91.20;96010.60;110317;1276;22564;-71
2023/01/12 10:28:35;;;;;;;19.50;12.10;;;;;;;4.82;90.86;96018.36;110162;1276;22428;-71
2023/01/12 10:31:03;;;;;;;22.90;13.50;;;;;;;4.77;90.84;96020.92;110328;1276;22344;-71
2023/01/12 10:33:33;;;;;;;18.80;11.60;;;;;;;4.72;90.83;96016.70;110356;1274;22395;-71
2023/01/12 10:36:03;;;;;;;19.10;11.70;;;;;;;4.72;91.00;96014.95;110340;1276;22363;-71
2023/01/12 10:38:38;;;;;;;18.90;11.90;;;;;;;4.74;91.11;96013.23;110296;1276;22207;-70
2023/01/12 10:41:08;;;;;;;17.70;11.20;;;;;;;4.77;91.15;96003.16;110367;1276;22204;-71
2023/01/12 10:43:38;;;;;;;19.60;11.70;;;;;;;4.79;90.98;95996.55;110361;1268;22380;-71
2023/01/12 10:46:11;;;;;;;21.10;11.70;;;;;;;4.85;91.06;95993.30;110367;1270;22819;-70
2023/01/12 10:48:50;;;;;;;;;;;;;;;4.93;91.30;95986.23;110309;1276;22438;-71
2023/01/12 10:51:24;;;;;;;21.80;11.60;;;;;;;5.00;90.96;95984.20;110375;1276;22137;-71
2023/01/12 10:54:02;;;;;;;16.50;10.50;;;;;;;5.04;90.42;95981.27;110399;1276;22518;-71
2023/01/12 10:56:34;;;;;;;17.00;10.20;;;;;;;5.05;90.07;95979.54;110347;1276;22147;-70
2023/01/12 10:59:11;;;;;;;24.90;14.90;;;;;;;5.11;90.39;95978.71;110444;1276;22165;-70
2023/01/12 11:01:48;;;;;;;26.10;15.80;;;;;;;5.18;90.55;95972.85;110488;1276;22118;-71
2023/01/12 11:04:22;;;;;;;16.40;10.50;;;;;;;5.25;90.04;95972.55;110403;1276;22164;-70
2023/01/12 11:06:59;;;;;;;17.10;10.20;;;;;;;5.28;89.66;95969.44;110386;1268;22135;-70
2023/01/12 11:09:30;;;;;;;16.60;11.00;;;;;;;5.31;89.30;95964.23;110389;1276;22311;-70
2023/01/12 11:12:38;;;;;;;18.20;11.50;;;;;;;5.36;89.37;95966.20;110293;1277;22119;-71
2023/01/12 11:15:10;;;;;;;21.90;12.50;;;;;;;5.41;89.46;95966.58;110365;1264;23005;-70
2023/01/12 11:17:55;;;;;;;17.00;10.70;;;;;;;5.46;89.30;95966.96;110344;1277;22141;-70
2023/01/12 11:20:26;;;;;;;22.50;13.70;;;;;;;5.40;88.53;95963.44;110335;1277;22171;-70
2023/01/12 11:22:59;;;;;;;20.00;13.40;;;;;;;5.37;88.53;95963.77;110327;1277;22250;-70
2023/01/12 11:25:34;;;;;;;19.70;11.90;;;;;;;5.36;88.60;95965.50;110305;1277;22247;-70
2023/01/12 11:28:13;;;;;;;19.30;13.10;;;;;;;5.35;88.60;95963.91;110352;1277;22153;-70
2023/01/12 11:30:50;;;;;;;22.30;13.20;;;;;;;5.35;88.76;95963.23;110222;1277;22177;-70
2023/01/12 11:33:25;;;;;;;16.70;11.30;;;;;;;5.38;88.44;95960.98;110355;1277;23183;-70
2023/01/12 11:36:01;;;;;;;18.80;11.60;;;;;;;5.38;88.34;95960.45;110328;1277;22282;-70
2023/01/12 11:38:49;;;;;;;16.80;10.90;;;;;;;5.37;88.20;95961.67;110365;1276;22439;-70
2023/01/12 11:41:25;;;;;;;17.40;10.20;;;;;;;5.37;88.10;95958.88;110351;1277;22873;-70
2023/01/12 11:44:10;;;;;;;18.30;12.30;;;;;;;5.40;88.35;95952.27;110332;1277;22173;-70
2023/01/12 11:46:46;;;;;;;18.70;12.20;;;;;;;5.45;88.44;95944.63;110311;1277;22090;-70
2023/01/12 11:49:26;;;;;;;20.40;12.10;;;;;;;5.47;87.94;95943.40;110354;1276;22156;-70
2023/01/12 11:51:57;;;;;;;22.40;13.40;;;;;;;5.47;87.55;95937.50;110373;1277;22664;-70
2023/01/12 11:54:27;;;;;;;21.60;13.00;;;;;;;5.49;87.63;95937.84;110340;1277;23059;-70
2023/01/12 11:57:18;;;;;;;23.30;13.20;;;;;;;5.52;87.99;95936.65;110291;1277;22225;-70
2023/01/12 11:59:52;;;;;;;19.00;11.40;;;;;;;5.58;88.00;95937.02;110268;1277;22871;-69
2023/01/12 12:02:36;;;;;;;17.30;11.10;;;;;;;5.61;87.85;95938.45;110355;1277;22994;-70
2023/01/12 12:05:11;;;;;;;16.40;9.80;;;;;;;5.65;87.71;95934.27;110225;1277;22166;-70
2023/01/12 12:07:56;;;;;;;14.40;9.00;;;;;;;5.69;87.56;95936.23;110302;1277;22139;-70
2023/01/12 12:10:52;;;;;;;17.00;10.10;;;;;;;5.71;87.45;95935.88;110301;1277;22274;-70